• Join FlightAware (Why Join?)
  • Login
  • US Flag 
01:49AM EDT


 

Airport Tracker/Info


-or-


 

Live Flight TrackerFlight Track Log ✈ EJA122 ✈ 02-Sep-2013 ✈ KLWB - KDTS

Flight Track Log - Related Links

Times and Time Zones

All times are in EDT time to prevent confusion due to time zone crossing. See the EJA122 flight status page for this flight to view local times or setup timezone preferences in your user account.

Time Position Orientation Groundspeed Altitude Reporting Facility
EDT Latitude Longitude Course Direction KTS MPH feet Rate Location/Type
11:46AM 37.7519 -80.4431 200° South 357 411 8,300  Level Washington Center
11:47AM 37.6858 -80.4731 200° South 302 348 10,100 1,560 Climbing Washington Center
11:48AM 37.6097 -80.5022 197° South 290 334 11,500 1,500 Climbing Washington Center
11:50AM 37.3778 -80.5942 197° South 368 423 15,200 1,560 Climbing Atlanta Center
11:51AM 37.2706 -80.6381 198° South 388 447 16,800 1,500 Climbing Atlanta Center
11:52AM 37.1697 -80.6867 201° Southwest 399 459 18,300 1,620 Climbing Atlanta Center
11:53AM 37.0611 -80.7564 207° Southwest 404 465 20,100 1,680 Climbing Atlanta Center
11:54AM 36.9583 -80.8125 204° Southwest 404 465 21,700 1,440 Climbing Atlanta Center
11:55AM 36.8619 -80.8711 206° Southwest 397 457 23,000 1,140 Climbing Atlanta Center
11:56AM 36.7717 -80.9264 206° Southwest 397 457 24,000 900 Climbing Atlanta Center
11:57AM 36.6769 -80.9794 204° Southwest 391 450 24,900 900 Climbing Atlanta Center
11:58AM 36.5783 -81.0372 205° Southwest 396 456 25,900 960 Climbing Atlanta Center
11:59AM 36.4819 -81.0953 206° Southwest 391 450 26,900 960 Climbing Atlanta Center
12:00PM 36.3831 -81.1531 205° Southwest 391 450 27,900 960 Climbing Atlanta Center
12:01PM 36.2844 -81.2106 205° Southwest 391 450 28,900 960 Climbing Atlanta Center
12:02PM 36.1772 -81.2736 205° Southwest 391 450 29,900 960 Climbing Atlanta Center
12:03PM 36.0806 -81.3333 207° Southwest 397 457 30,900 960 Climbing Atlanta Center
12:04PM 35.9817 -81.3906 205° Southwest 392 451 31,900 900 Climbing Atlanta Center
12:05PM 35.8850 -81.4475 206° Southwest 387 445 32,800 900 Climbing Atlanta Center
12:06PM 35.7881 -81.5069 206° Southwest 387 445 33,800 600 Climbing Atlanta Center
12:07PM 35.6869 -81.5639 205° Southwest 392 451 34,000 60 Climbing Atlanta Center
12:08PM 35.5839 -81.6206 204° Southwest 403 464 34,000  Level Atlanta Center
12:09PM 35.4744 -81.6825 205° Southwest 415 478 34,000  Level Atlanta Center
12:10PM 35.3692 -81.7414 205° Southwest 420 483 34,000  Level Atlanta Center
12:11PM 35.2578 -81.8081 206° Southwest 425 489 34,000  Level Atlanta Center
12:12PM 35.1547 -81.8819 210° Southwest 437 503 34,000  Level Atlanta Center
12:13PM 35.0517 -81.9608 212° Southwest 438 504 34,000  Level Atlanta Center
12:14PM 34.9508 -82.0317 210° Southwest 438 504 34,000  Level Atlanta Center
12:15PM 34.8600 -82.0922 209° Southwest 429 494 34,000  Level Atlanta Center
12:16PM 34.7628 -82.1603 210° Southwest 422 486 34,000  Level Atlanta Center
12:17PM 34.6658 -82.2306 211° Southwest 416 479 34,000  Level Atlanta Center
12:18PM 34.5689 -82.3008 211° Southwest 411 473 34,000  Level Atlanta Center
12:19PM 34.4758 -82.3681 211° Southwest 405 466 34,000  Level Atlanta Center
12:20PM 34.3786 -82.4356 210° Southwest 400 460 34,000  Level Atlanta Center
12:21PM 34.2875 -82.5025 211° Southwest 400 460 34,000  Level Atlanta Center
12:22PM 34.1903 -82.5697 210° Southwest 400 460 34,000  Level Atlanta Center
12:23PM 34.1014 -82.6289 209° Southwest 405 466 34,000  Level Atlanta Center
12:24PM 34.0039 -82.6981 210° Southwest 405 466 34,000  Level Atlanta Center
12:25PM 33.9044 -82.7647 209° Southwest 405 466 34,000  Level Atlanta Center
12:26PM 33.7883 -82.8467 210° Southwest 405 466 34,000  Level Atlanta Center
12:27PM 33.6889 -82.9153 210° Southwest 413 475 34,000  Level Atlanta Center
12:28PM 33.5914 -82.9839 210° Southwest 413 475 34,000  Level Atlanta Center
12:29PM 33.4917 -83.0525 210° Southwest 413 475 34,000  Level Atlanta Center
12:30PM 33.3942 -83.1208 210° Southwest 413 475 34,000  Level Atlanta Center
12:31PM 33.2967 -83.1889 210° Southwest 413 475 34,000  Level Atlanta Center
12:32PM 33.2072 -83.2492 209° Southwest 413 475 34,000  Level Atlanta Center
12:33PM 33.1075 -83.3197 211° Southwest 413 475 34,000  Level Atlanta Center
12:34PM 33.0161 -83.3872 212° Southwest 400 460 34,000  Level Atlanta Center
12:35PM 32.9183 -83.4522 209° Southwest 400 460 34,000  Level Atlanta Center
12:36PM 32.8206 -83.5172 209° Southwest 400 460 34,000  Level Atlanta Center
12:37PM 32.7225 -83.5819 209° Southwest 400 460 34,000  Level Atlanta Center
12:38PM 32.6247 -83.6467 209° Southwest 400 460 34,000  Level Atlanta Center
12:39PM 32.5289 -83.7136 211° Southwest 400 460 34,000  Level Atlanta Center
12:40PM 32.4289 -83.7806 209° Southwest 400 460 34,000  Level Atlanta Center
12:41PM 32.3289 -83.8472 209° Southwest 400 460 34,000 -180 Level Atlanta Center
12:42PM 32.2308 -83.9136 210° Southwest 405 466 33,700 -660 Descending Atlanta Center
12:43PM 32.1244 -83.9850 210° Southwest 419 482 32,700 -1,080 Descending Atlanta Center
12:44PM 32.0158 -84.0558 209° Southwest 438 504 31,600 -1,080 Descending Atlanta Center
12:45PM 31.9031 -84.1319 210° Southwest 450 518 30,600 -1,020 Descending Atlanta Center
12:46PM 31.8217 -84.1861 209° Southwest 458 527 29,900 -1,020 Descending Jacksonville Center
12:47PM 31.7122 -84.2625 211° Southwest 446 513 28,900 -960 Descending Jacksonville Center
12:48PM 31.6317 -84.3761 230° Southwest 446 513 28,000 -600 Descending Jacksonville Center
12:49PM 31.5842 -84.5069 247° West 440 506 27,800 -660 Descending Jacksonville Center
12:50PM 31.5364 -84.6403 247° West 440 506 26,700 -1,080 Descending Jacksonville Center
12:51PM 31.4908 -84.7733 248° West 440 506 25,700 -900 Descending Jacksonville Center
12:52PM 31.4447 -84.9089 248° West 445 512 25,000 -660 Descending Jacksonville Center
12:53PM 31.3986 -85.0442 248° West 450 518 24,400 -540 Descending Jacksonville Center
12:54PM 31.3461 -85.1889 247° West 450 518 24,000 -240 Descending Jacksonville Center
12:55PM 31.3083 -85.3072 250° West 436 502 24,000  Level Jacksonville Center
12:56PM 31.2642 -85.4347 248° West 431 496 24,000  Level Jacksonville Center
12:57PM 31.2175 -85.5694 248° West 437 503 24,000  Level Jacksonville Center
12:58PM 31.1708 -85.7092 249° West 450 518 24,000  Level Jacksonville Center
12:59PM 31.1172 -85.8531 247° West 450 518 24,000  Level Jacksonville Center
01:00PM 31.0683 -85.9825 246° West 445 512 24,000  Level Jacksonville Center
01:01PM 30.9892 -86.0647 222° Southwest 425 489 24,000  Level Jacksonville Center
01:02PM 30.8764 -86.1481 212° Southwest 425 489 24,000  Level Jacksonville Center
01:03PM 30.7719 -86.2217 211° Southwest 441 507 24,000 -600 Level Jacksonville Center
01:04PM 30.6722 -86.2858 209° Southwest 435 501 22,800 -1,800 Descending Jacksonville Center
01:05PM 30.5792 -86.3283 201° Southwest 374 430 20,500 -5,940 Descending Jacksonville Center
01:06PM 30.4800 -86.2983 165° South 354 407 11,000 -4,800 Descending Jacksonville Center
01:07PM 30.3925 -86.2881 174° South 346 398 11,000  Level Jacksonville Center
01:08PM 30.3325 -86.3411 217° Southwest 267 307 11,000  Level Jacksonville Center
01:09PM 30.3789 -86.4031 311° West 152 175 11,000  Level Jacksonville Center
01:10PM 30.4281 -86.4411 326° Northwest 159 183 11,000  Level Jacksonville Center
01:11PM 30.4206 -86.4792 257° West 125 144 11,000  Level Jacksonville Center
01:12PM 30.3819 -86.5236 225° Southwest 133 153 11,000  Level Jacksonville Center
01:14PM 30.4000 -86.4667 52° Northeast  Level FlightAware Approximate